sensor_id;sensor_type;location;lat;lon;timestamp;pressure;altitude;pressure_sealevel;temperature;humidity
60258;BME280;46115;44.484;11.314;2022-10-12T00:00:12;100945.44;;;14.99;83.75
60258;BME280;46115;44.484;11.314;2022-10-12T00:04:37;100945.94;;;15.06;83.71
60258;BME280;46115;44.484;11.314;2022-10-12T00:09:01;100951.06;;;15.09;83.25
60258;BME280;46115;44.484;11.314;2022-10-12T00:13:24;100944.69;;;14.97;83.32
60258;BME280;46115;44.484;11.314;2022-10-12T00:17:46;100948.03;;;15.01;83.81
60258;BME280;46115;44.484;11.314;2022-10-12T00:22:09;100958.88;;;14.82;84.38
60258;BME280;46115;44.484;11.314;2022-10-12T00:26:33;100952.31;;;14.73;84.58
60258;BME280;46115;44.484;11.314;2022-10-12T00:30:56;100928.03;;;14.63;84.39
60258;BME280;46115;44.484;11.314;2022-10-12T00:35:18;100946.09;;;14.58;85.84
60258;BME280;46115;44.484;11.314;2022-10-12T00:39:41;100938.53;;;14.51;85.12
60258;BME280;46115;44.484;11.314;2022-10-12T00:44:36;100940.25;;;14.52;85.26
60258;BME280;46115;44.484;11.314;2022-10-12T00:49:06;100937.31;;;14.56;85.10
60258;BME280;46115;44.484;11.314;2022-10-12T00:53:34;100937.00;;;14.47;85.90
60258;BME280;46115;44.484;11.314;2022-10-12T00:58:00;100936.81;;;14.34;86.12
60258;BME280;46115;44.484;11.314;2022-10-12T01:02:25;100932.84;;;14.41;85.58
60258;BME280;46115;44.484;11.314;2022-10-12T01:06:50;100941.19;;;14.51;85.62
60258;BME280;46115;44.484;11.314;2022-10-12T01:11:13;100928.94;;;14.32;86.39
60258;BME280;46115;44.484;11.314;2022-10-12T01:15:37;100927.97;;;14.33;86.10
60258;BME280;46115;44.484;11.314;2022-10-12T01:24:51;100932.16;;;14.22;86.74
60258;BME280;46115;44.484;11.314;2022-10-12T01:29:30;100920.34;;;14.27;86.30
60258;BME280;46115;44.484;11.314;2022-10-12T01:34:04;100925.06;;;14.38;86.80
60258;BME280;46115;44.484;11.314;2022-10-12T01:38:42;100923.34;;;14.21;86.52
60258;BME280;46115;44.484;11.314;2022-10-12T01:43:07;100926.69;;;14.09;87.08
60258;BME280;46115;44.484;11.314;2022-10-12T01:47:30;100918.91;;;14.06;87.15
60258;BME280;46115;44.484;11.314;2022-10-12T01:52:11;100920.28;;;13.97;87.65
60258;BME280;46115;44.484;11.314;2022-10-12T01:56:41;100921.81;;;14.01;87.25
60258;BME280;46115;44.484;11.314;2022-10-12T02:01:11;100917.09;;;14.07;86.98
60258;BME280;46115;44.484;11.314;2022-10-12T02:05:39;100914.94;;;14.13;87.03
60258;BME280;46115;44.484;11.314;2022-10-12T02:10:09;100915.91;;;13.96;87.01
60258;BME280;46115;44.484;11.314;2022-10-12T02:14:38;100924.13;;;14.23;86.23
60258;BME280;46115;44.484;11.314;2022-10-12T02:19:04;100912.56;;;14.09;86.85
60258;BME280;46115;44.484;11.314;2022-10-12T02:23:29;100918.72;;;14.09;86.32
60258;BME280;46115;44.484;11.314;2022-10-12T02:27:57;100910.94;;;14.06;87.18
60258;BME280;46115;44.484;11.314;2022-10-12T02:32:26;100905.78;;;14.03;87.20
60258;BME280;46115;44.484;11.314;2022-10-12T02:36:52;100906.72;;;13.86;88.02
60258;BME280;46115;44.484;11.314;2022-10-12T02:41:22;100904.06;;;13.86;87.57
60258;BME280;46115;44.484;11.314;2022-10-12T02:45:48;100876.53;;;13.56;87.96
60258;BME280;46115;44.484;11.314;2022-10-12T02:50:14;100907.00;;;13.97;87.49
60258;BME280;46115;44.484;11.314;2022-10-12T02:54:38;100912.19;;;13.67;88.46
60258;BME280;46115;44.484;11.314;2022-10-12T02:59:01;100910.09;;;13.90;87.55
60258;BME280;46115;44.484;11.314;2022-10-12T03:03:25;100905.09;;;13.84;87.91
60258;BME280;46115;44.484;11.314;2022-10-12T03:07:48;100903.63;;;13.78;87.85
60258;BME280;46115;44.484;11.314;2022-10-12T03:12:10;100906.88;;;13.67;88.13
60258;BME280;46115;44.484;11.314;2022-10-12T03:16:33;100916.91;;;13.78;88.22
60258;BME280;46115;44.484;11.314;2022-10-12T03:20:57;100914.94;;;13.66;88.69
60258;BME280;46115;44.484;11.314;2022-10-12T03:25:20;100918.88;;;13.74;88.65
60258;BME280;46115;44.484;11.314;2022-10-12T03:29:42;100908.84;;;13.80;88.25
60258;BME280;46115;44.484;11.314;2022-10-12T03:34:05;100914.00;;;13.67;88.12
60258;BME280;46115;44.484;11.314;2022-10-12T03:38:29;100914.00;;;13.67;88.40
60258;BME280;46115;44.484;11.314;2022-10-12T03:42:51;100916.13;;;13.76;87.90
60258;BME280;46115;44.484;11.314;2022-10-12T03:47:14;100915.72;;;13.68;87.69
60258;BME280;46115;44.484;11.314;2022-10-12T03:51:37;100910.91;;;13.59;88.08
60258;BME280;46115;44.484;11.314;2022-10-12T03:56:01;100899.44;;;13.74;87.57
60258;BME280;46115;44.484;11.314;2022-10-12T04:00:24;100915.28;;;13.60;88.37
60258;BME280;46115;44.484;11.314;2022-10-12T04:04:48;100916.75;;;13.65;88.59
60258;BME280;46115;44.484;11.314;2022-10-12T04:09:11;100915.88;;;13.65;89.17
60258;BME280;46115;44.484;11.314;2022-10-12T04:13:35;100919.41;;;13.65;88.42
60258;BME280;46115;44.484;11.314;2022-10-12T04:17:57;100915.09;;;13.63;88.55
60258;BME280;46115;44.484;11.314;2022-10-12T04:22:20;100919.81;;;13.73;87.93
60258;BME280;46115;44.484;11.314;2022-10-12T04:26:44;100915.91;;;13.48;88.85
60258;BME280;46115;44.484;11.314;2022-10-12T04:31:08;100918.22;;;13.38;89.63
60258;BME280;46115;44.484;11.314;2022-10-12T04:35:30;100925.38;;;13.53;89.75
60258;BME280;46115;44.484;11.314;2022-10-12T04:39:53;100921.31;;;13.46;89.11
60258;BME280;46115;44.484;11.314;2022-10-12T04:44:16;100920.53;;;13.44;89.76
60258;BME280;46115;44.484;11.314;2022-10-12T04:48:40;100885.16;;;13.28;89.39
60258;BME280;46115;44.484;11.314;2022-10-12T04:53:02;100924.66;;;13.50;89.23
60258;BME280;46115;44.484;11.314;2022-10-12T04:57:25;100929.44;;;13.43;89.26
60258;BME280;46115;44.484;11.314;2022-10-12T05:01:47;100932.44;;;13.37;89.57
60258;BME280;46115;44.484;11.314;2022-10-12T05:06:11;100932.09;;;13.43;89.23
60258;BME280;46115;44.484;11.314;2022-10-12T05:10:33;100931.00;;;13.47;89.37
60258;BME280;46115;44.484;11.314;2022-10-12T05:14:56;100929.66;;;13.56;88.49
60258;BME280;46115;44.484;11.314;2022-10-12T05:19:18;100932.19;;;13.41;89.58
60258;BME280;46115;44.484;11.314;2022-10-12T05:23:42;100935.28;;;13.50;89.68
60258;BME280;46115;44.484;11.314;2022-10-12T05:28:05;100939.22;;;13.42;88.64
60258;BME280;46115;44.484;11.314;2022-10-12T05:32:28;100942.19;;;13.36;89.52
60258;BME280;46115;44.484;11.314;2022-10-12T05:36:50;100947.88;;;13.46;89.34
60258;BME280;46115;44.484;11.314;2022-10-12T05:41:14;100949.06;;;13.40;89.33
60258;BME280;46115;44.484;11.314;2022-10-12T05:45:37;100960.28;;;13.46;88.54
60258;BME280;46115;44.484;11.314;2022-10-12T05:50:00;100964.66;;;13.47;88.76
60258;BME280;46115;44.484;11.314;2022-10-12T05:54:22;100962.69;;;13.50;89.05
60258;BME280;46115;44.484;11.314;2022-10-12T05:58:46;100960.59;;;13.57;88.47
60258;BME280;46115;44.484;11.314;2022-10-12T06:03:09;100958.66;;;13.76;88.06
60258;BME280;46115;44.484;11.314;2022-10-12T06:07:31;100961.69;;;14.01;86.20
60258;BME280;46115;44.484;11.314;2022-10-12T06:11:54;100972.41;;;14.31;85.02
60258;BME280;46115;44.484;11.314;2022-10-12T06:16:18;100971.22;;;14.37;84.60
60258;BME280;46115;44.484;11.314;2022-10-12T06:20:45;100965.16;;;14.81;82.59
60258;BME280;46115;44.484;11.314;2022-10-12T06:25:08;100973.84;;;15.28;80.82
60258;BME280;46115;44.484;11.314;2022-10-12T06:29:30;100977.47;;;15.42;79.67
60258;BME280;46115;44.484;11.314;2022-10-12T06:33:54;100973.84;;;15.57;79.34
60258;BME280;46115;44.484;11.314;2022-10-12T06:38:17;100972.09;;;15.86;78.95
60258;BME280;46115;44.484;11.314;2022-10-12T06:42:40;100979.63;;;16.76;74.53
60258;BME280;46115;44.484;11.314;2022-10-12T06:47:02;100986.34;;;17.34;71.64
60258;BME280;46115;44.484;11.314;2022-10-12T06:51:27;100988.31;;;16.38;74.65
60258;BME280;46115;44.484;11.314;2022-10-12T06:55:49;100986.69;;;17.55;71.04
60258;BME280;46115;44.484;11.314;2022-10-12T07:00:13;100994.59;;;17.43;70.72
60258;BME280;46115;44.484;11.314;2022-10-12T07:04:35;100995.28;;;17.72;69.81
60258;BME280;46115;44.484;11.314;2022-10-12T07:09:00;100996.84;;;17.50;70.94
60258;BME280;46115;44.484;11.314;2022-10-12T07:13:22;100998.63;;;18.49;67.89
60258;BME280;46115;44.484;11.314;2022-10-12T07:17:45;101009.59;;;18.33;67.73
60258;BME280;46115;44.484;11.314;2022-10-12T07:22:08;101014.00;;;17.72;69.01
60258;BME280;46115;44.484;11.314;2022-10-12T07:26:32;101014.59;;;18.14;69.31
60258;BME280;46115;44.484;11.314;2022-10-12T07:30:59;101018.28;;;18.74;65.63
60258;BME280;46115;44.484;11.314;2022-10-12T07:35:22;101022.03;;;19.30;62.88
60258;BME280;46115;44.484;11.314;2022-10-12T07:39:45;101021.13;;;18.47;66.05
60258;BME280;46115;44.484;11.314;2022-10-12T07:44:09;101030.16;;;18.69;64.76
60258;BME280;46115;44.484;11.314;2022-10-12T07:48:32;101035.56;;;20.31;60.18
60258;BME280;46115;44.484;11.314;2022-10-12T07:52:55;101040.63;;;22.64;53.99
60258;BME280;46115;44.484;11.314;2022-10-12T07:57:19;101042.97;;;23.37;50.73
60258;BME280;46115;44.484;11.314;2022-10-12T08:01:43;101044.97;;;23.34;49.64
60258;BME280;46115;44.484;11.314;2022-10-12T08:06:10;101013.66;;;22.55;51.64
60258;BME280;46115;44.484;11.314;2022-10-12T08:10:34;101029.22;;;23.11;50.90
60258;BME280;46115;44.484;11.314;2022-10-12T08:14:57;101032.38;;;23.82;48.40
60258;BME280;46115;44.484;11.314;2022-10-12T08:19:21;101021.84;;;24.53;47.04
60258;BME280;46115;44.484;11.314;2022-10-12T08:23:44;101027.28;;;24.16;47.79
60258;BME280;46115;44.484;11.314;2022-10-12T08:28:07;101039.72;;;26.97;42.28
60258;BME280;46115;44.484;11.314;2022-10-12T08:32:30;101039.59;;;27.55;41.31
60258;BME280;46115;44.484;11.314;2022-10-12T08:36:54;101034.00;;;27.41;40.08
60258;BME280;46115;44.484;11.314;2022-10-12T08:46:07;101047.94;;;29.64;36.55
60258;BME280;46115;44.484;11.314;2022-10-12T08:50:32;101046.75;;;31.83;33.10
60258;BME280;46115;44.484;11.314;2022-10-12T08:54:59;101050.69;;;32.43;31.32
60258;BME280;46115;44.484;11.314;2022-10-12T08:59:27;101046.91;;;32.44;31.27
60258;BME280;46115;44.484;11.314;2022-10-12T09:03:59;101047.31;;;30.65;33.67
60258;BME280;46115;44.484;11.314;2022-10-12T09:08:31;101039.47;;;29.74;35.53
60258;BME280;46115;44.484;11.314;2022-10-12T09:13:00;101031.56;;;28.73;37.04
60258;BME280;46115;44.484;11.314;2022-10-12T09:17:26;101029.16;;;28.78;37.42
60258;BME280;46115;44.484;11.314;2022-10-12T09:21:50;101031.19;;;29.30;36.62
60258;BME280;46115;44.484;11.314;2022-10-12T09:26:15;101042.50;;;31.53;33.16
60258;BME280;46115;44.484;11.314;2022-10-12T09:30:43;101035.63;;;31.14;33.61
60258;BME280;46115;44.484;11.314;2022-10-12T09:35:10;101017.25;;;28.87;37.21
60258;BME280;46115;44.484;11.314;2022-10-12T09:39:35;101012.97;;;27.34;40.59
60258;BME280;46115;44.484;11.314;2022-10-12T09:44:00;101011.06;;;26.86;42.01
60258;BME280;46115;44.484;11.314;2022-10-12T09:48:25;101002.94;;;26.86;42.62
60258;BME280;46115;44.484;11.314;2022-10-12T09:52:47;101009.84;;;25.36;46.09
60258;BME280;46115;44.484;11.314;2022-10-12T09:57:17;101006.22;;;25.71;45.21
60258;BME280;46115;44.484;11.314;2022-10-12T10:01:40;101007.00;;;24.39;48.64
60258;BME280;46115;44.484;11.314;2022-10-12T10:06:05;101012.69;;;24.81;47.98
60258;BME280;46115;44.484;11.314;2022-10-12T10:10:27;101009.03;;;25.00;47.73
60258;BME280;46115;44.484;11.314;2022-10-12T10:14:51;100993.88;;;24.17;50.54
60258;BME280;46115;44.484;11.314;2022-10-12T10:19:16;100989.56;;;24.34;50.51
60258;BME280;46115;44.484;11.314;2022-10-12T10:23:43;101000.88;;;23.73;52.83
60258;BME280;46115;44.484;11.314;2022-10-12T10:28:21;101002.97;;;24.16;51.73
60258;BME280;46115;44.484;11.314;2022-10-12T10:32:45;101002.06;;;23.60;53.05
60258;BME280;46115;44.484;11.314;2022-10-12T10:37:13;101002.78;;;23.62;53.45
60258;BME280;46115;44.484;11.314;2022-10-12T10:41:41;101001.09;;;23.32;54.71
60258;BME280;46115;44.484;11.314;2022-10-12T10:46:04;100998.78;;;23.57;54.16
60258;BME280;46115;44.484;11.314;2022-10-12T10:50:31;101002.78;;;23.90;53.00
60258;BME280;46115;44.484;11.314;2022-10-12T10:55:16;100974.44;;;23.10;55.97
60258;BME280;46115;44.484;11.314;2022-10-12T10:59:46;100943.63;;;22.74;56.50
60258;BME280;46115;44.484;11.314;2022-10-12T11:04:14;100961.47;;;23.23;55.55
60258;BME280;46115;44.484;11.314;2022-10-12T11:08:42;100982.09;;;23.15;55.56
60258;BME280;46115;44.484;11.314;2022-10-12T11:13:11;100968.44;;;22.58;57.69
60258;BME280;46115;44.484;11.314;2022-10-12T11:17:41;100975.66;;;22.48;57.20
60258;BME280;46115;44.484;11.314;2022-10-12T11:22:11;100969.63;;;23.04;54.89
60258;BME280;46115;44.484;11.314;2022-10-12T11:26:39;100960.31;;;22.39;55.31
60258;BME280;46115;44.484;11.314;2022-10-12T11:31:04;100971.84;;;22.70;55.83
60258;BME280;46115;44.484;11.314;2022-10-12T11:35:33;100961.06;;;22.80;55.60
60258;BME280;46115;44.484;11.314;2022-10-12T11:39:58;100965.59;;;22.50;56.45
60258;BME280;46115;44.484;11.314;2022-10-12T11:44:27;100947.75;;;22.68;56.15
60258;BME280;46115;44.484;11.314;2022-10-12T11:48:55;100945.34;;;22.65;55.66
60258;BME280;46115;44.484;11.314;2022-10-12T11:53:26;100922.63;;;21.89;57.24
60258;BME280;46115;44.484;11.314;2022-10-12T11:57:54;100948.13;;;22.45;55.75
60258;BME280;46115;44.484;11.314;2022-10-12T12:02:22;100945.22;;;21.46;58.00
60258;BME280;46115;44.484;11.314;2022-10-12T12:06:49;100918.88;;;21.71;57.05
60258;BME280;46115;44.484;11.314;2022-10-12T12:11:20;100933.25;;;22.31;56.80
60258;BME280;46115;44.484;11.314;2022-10-12T12:21:01;100936.13;;;21.99;57.73
60258;BME280;46115;44.484;11.314;2022-10-12T12:25:30;100930.91;;;22.07;57.91
60258;BME280;46115;44.484;11.314;2022-10-12T12:29:55;100929.00;;;22.38;56.58
60258;BME280;46115;44.484;11.314;2022-10-12T12:34:18;100927.66;;;22.13;56.61
60258;BME280;46115;44.484;11.314;2022-10-12T12:38:46;100920.34;;;22.25;55.95
60258;BME280;46115;44.484;11.314;2022-10-12T12:43:32;100902.44;;;21.64;57.71
60258;BME280;46115;44.484;11.314;2022-10-12T12:47:58;100923.94;;;21.64;57.69
60258;BME280;46115;44.484;11.314;2022-10-12T12:52:25;100910.88;;;21.90;57.38
60258;BME280;46115;44.484;11.314;2022-10-12T12:56:53;100907.16;;;22.22;57.46
60258;BME280;46115;44.484;11.314;2022-10-12T13:01:32;100912.41;;;22.42;57.19
60258;BME280;46115;44.484;11.314;2022-10-12T13:11:09;100906.03;;;22.44;54.46
60258;BME280;46115;44.484;11.314;2022-10-12T13:15:54;100917.09;;;22.21;54.93
60258;BME280;46115;44.484;11.314;2022-10-12T13:20:23;100896.69;;;22.38;55.21
60258;BME280;46115;44.484;11.314;2022-10-12T13:24:50;100901.16;;;22.08;56.42
60258;BME280;46115;44.484;11.314;2022-10-12T13:29:18;100890.97;;;22.12;54.70
60258;BME280;46115;44.484;11.314;2022-10-12T13:33:44;100886.59;;;22.30;53.10
60258;BME280;46115;44.484;11.314;2022-10-12T13:38:20;100877.03;;;21.88;53.68
60258;BME280;46115;44.484;11.314;2022-10-12T13:42:44;100878.53;;;22.30;52.44
60258;BME280;46115;44.484;11.314;2022-10-12T13:47:20;100876.78;;;22.10;53.19
60258;BME280;46115;44.484;11.314;2022-10-12T13:51:45;100868.75;;;21.79;52.27
60258;BME280;46115;44.484;11.314;2022-10-12T13:56:11;100875.19;;;21.98;52.48
60258;BME280;46115;44.484;11.314;2022-10-12T14:00:45;100873.16;;;22.21;52.06
60258;BME280;46115;44.484;11.314;2022-10-12T14:05:17;100860.94;;;22.17;51.58
60258;BME280;46115;44.484;11.314;2022-10-12T14:09:42;100861.88;;;21.96;52.29
60258;BME280;46115;44.484;11.314;2022-10-12T14:14:15;100859.63;;;21.52;52.70
60258;BME280;46115;44.484;11.314;2022-10-12T14:18:42;100858.38;;;21.56;52.09
60258;BME280;46115;44.484;11.314;2022-10-12T14:23:11;100863.34;;;21.70;51.47
60258;BME280;46115;44.484;11.314;2022-10-12T14:27:37;100855.78;;;21.94;51.34
60258;BME280;46115;44.484;11.314;2022-10-12T14:32:01;100818.03;;;21.25;51.94
60258;BME280;46115;44.484;11.314;2022-10-12T14:36:26;100849.16;;;21.58;51.82
60258;BME280;46115;44.484;11.314;2022-10-12T14:40:49;100844.69;;;21.78;51.17
60258;BME280;46115;44.484;11.314;2022-10-12T14:45:21;100850.50;;;21.83;51.49
60258;BME280;46115;44.484;11.314;2022-10-12T14:49:45;100826.91;;;22.06;50.19
60258;BME280;46115;44.484;11.314;2022-10-12T14:54:10;100846.16;;;22.01;50.26
60258;BME280;46115;44.484;11.314;2022-10-12T14:58:32;100841.84;;;21.70;50.50
60258;BME280;46115;44.484;11.314;2022-10-12T15:02:56;100836.22;;;21.42;50.89
60258;BME280;46115;44.484;11.314;2022-10-12T15:07:21;100832.97;;;21.48;50.30
60258;BME280;46115;44.484;11.314;2022-10-12T15:11:45;100840.06;;;21.49;50.25
60258;BME280;46115;44.484;11.314;2022-10-12T15:16:15;100833.47;;;21.63;49.79
60258;BME280;46115;44.484;11.314;2022-10-12T15:20:39;100836.06;;;21.44;50.44
60258;BME280;46115;44.484;11.314;2022-10-12T15:25:15;100837.28;;;21.61;50.46
60258;BME280;46115;44.484;11.314;2022-10-12T15:29:40;100828.44;;;21.49;50.58
60258;BME280;46115;44.484;11.314;2022-10-12T15:34:08;100828.38;;;21.70;50.18
60258;BME280;46115;44.484;11.314;2022-10-12T15:38:31;100810.16;;;21.12;50.92
60258;BME280;46115;44.484;11.314;2022-10-12T15:42:54;100836.00;;;21.55;50.37
60258;BME280;46115;44.484;11.314;2022-10-12T15:47:18;100827.81;;;21.26;50.45
60258;BME280;46115;44.484;11.314;2022-10-12T15:51:45;100831.75;;;21.62;49.94
60258;BME280;46115;44.484;11.314;2022-10-12T15:56:10;100839.00;;;21.31;51.05
60258;BME280;46115;44.484;11.314;2022-10-12T16:00:34;100821.06;;;21.41;50.82
60258;BME280;46115;44.484;11.314;2022-10-12T16:04:58;100829.19;;;21.21;50.71
60258;BME280;46115;44.484;11.314;2022-10-12T16:09:21;100832.03;;;20.98;51.49
60258;BME280;46115;44.484;11.314;2022-10-12T16:13:44;100833.69;;;20.90;52.20
60258;BME280;46115;44.484;11.314;2022-10-12T16:18:09;100820.56;;;20.75;52.88
60258;BME280;46115;44.484;11.314;2022-10-12T16:22:37;100827.44;;;20.68;53.45
60258;BME280;46115;44.484;11.314;2022-10-12T16:27:00;100845.28;;;20.37;54.99
60258;BME280;46115;44.484;11.314;2022-10-12T16:31:23;100842.66;;;20.26;55.51
60258;BME280;46115;44.484;11.314;2022-10-12T16:35:45;100842.19;;;20.21;55.83
60258;BME280;46115;44.484;11.314;2022-10-12T16:40:11;100837.34;;;20.36;55.59
60258;BME280;46115;44.484;11.314;2022-10-12T16:44:34;100838.88;;;19.85;56.81
60258;BME280;46115;44.484;11.314;2022-10-12T16:48:57;100844.94;;;19.99;56.88
60258;BME280;46115;44.484;11.314;2022-10-12T16:53:19;100845.81;;;19.77;57.92
60258;BME280;46115;44.484;11.314;2022-10-12T16:57:44;100844.47;;;19.93;56.93
60258;BME280;46115;44.484;11.314;2022-10-12T17:02:09;100853.16;;;19.63;58.14
60258;BME280;46115;44.484;11.314;2022-10-12T22:06:10;100957.66;;;16.98;79.17
60258;BME280;46115;44.484;11.314;2022-10-12T22:10:34;100956.13;;;16.81;79.35
60258;BME280;46115;44.484;11.314;2022-10-12T22:14:57;100962.03;;;16.99;78.92
60258;BME280;46115;44.484;11.314;2022-10-12T22:19:21;100957.09;;;16.80;79.79
60258;BME280;46115;44.484;11.314;2022-10-12T22:23:45;100944.72;;;16.65;80.02
60258;BME280;46115;44.484;11.314;2022-10-12T22:28:08;100952.72;;;16.65;80.83
60258;BME280;46115;44.484;11.314;2022-10-12T22:32:36;100956.88;;;16.83;80.23
60258;BME280;46115;44.484;11.314;2022-10-12T22:36:59;100961.38;;;16.82;80.35
60258;BME280;46115;44.484;11.314;2022-10-12T22:41:23;100952.72;;;16.92;79.72
60258;BME280;46115;44.484;11.314;2022-10-12T22:45:46;100951.22;;;16.88;81.12
60258;BME280;46115;44.484;11.314;2022-10-12T22:50:08;100947.06;;;16.83;80.05
60258;BME280;46115;44.484;11.314;2022-10-12T22:54:31;100955.91;;;16.71;80.47
60258;BME280;46115;44.484;11.314;2022-10-12T22:58:57;100952.72;;;16.65;80.32
60258;BME280;46115;44.484;11.314;2022-10-12T23:03:20;100956.34;;;16.64;80.88
60258;BME280;46115;44.484;11.314;2022-10-12T23:07:43;100965.31;;;16.63;80.72
60258;BME280;46115;44.484;11.314;2022-10-12T23:12:06;100959.94;;;16.50;81.26
60258;BME280;46115;44.484;11.314;2022-10-12T23:16:30;100958.78;;;16.68;80.60
60258;BME280;46115;44.484;11.314;2022-10-12T23:20:54;100967.75;;;16.67;80.00
60258;BME280;46115;44.484;11.314;2022-10-12T23:25:16;100965.94;;;16.53;80.79
60258;BME280;46115;44.484;11.314;2022-10-12T23:29:39;100968.41;;;16.57;80.85
60258;BME280;46115;44.484;11.314;2022-10-12T23:34:04;100962.00;;;16.59;81.00
60258;BME280;46115;44.484;11.314;2022-10-12T23:38:29;100964.44;;;16.49;81.37
60258;BME280;46115;44.484;11.314;2022-10-12T23:42:51;100976.91;;;16.49;81.16
60258;BME280;46115;44.484;11.314;2022-10-12T23:47:14;100976.16;;;16.47;81.51
60258;BME280;46115;44.484;11.314;2022-10-12T23:51:38;100980.88;;;16.56;80.94
60258;BME280;46115;44.484;11.314;2022-10-12T23:56:01;100968.59;;;16.53;80.38
